LIBQ  Monte Scuro Airport

Add Bookmark

Italy

Status
Operational
Latitude Longitude
39° 19' 12" N 16° 22' 47" E
39.320000 16.380000
Local (DST + 2) UTC (GMT + 1)
Jan 29, 2015 09:16 Jan 29, 2015 08:16
Sunrise-Sunset Local UTC
Begin Civil Twilight 06:34 05:34
Sunrise 07:02 06:02
Sunset 05:12 16:12
End Civil Twilight 05:41 16:41

Current Weather

METAR Observed LIFR
LIBQ 290755Z 00000KT 0000 FZFG VV/// M02/M02 Q1003 Thu, Jan 29, 2015 @ 07:55 UTC
(21 Minutes ago)
Low Instrument Flight Rules
Wind Visibility Clouds Conditions
Calm Less than 50 metres
  • Freezing Fog
Temperatures Readings Precipitation
Current Temp -2°C (28°F)
Dewpoint -2°C (28°F)
Humidity 100%
Altimeter 29.62"Hg
Sea Level Pressure 1003mb
Field Elevation 5643.04'
None Recorded

Additional weather within a 92.6km radius of LIBQ

Map ICAO Location
LICA 47.6km S (195°)
LIBC 70.2km E (121°)

24 Hour Weather History

Loading
-

24 Hour Weather Graphs

Loading
-

CheckWX.com is intended as a tool to help pilots better visualize weather data. It is not intended as a substitute for an official weather briefing obtained from a Flight Service Station. CheckWX.com does not meet the FAA requirements for an official pre-flight weather briefing. Therefore, it's important that pilots still call and obtain an official FSS pre-flight weather briefing.